WetterOnline ( http://www.wetteronline.de )

Wetter aktuell Plön

Aktuelles Wetter: Dörnick (28m)

6-stündlich | Neueste Meldungen
Ortszeit Temperatur Wetter
Di, 21.08. 14:00 21.3° C bewölkt
Di, 21.08. 8:00 13.0° C fast wolkenlos
Di, 21.08. 2:00 12.5° C bedeckt
Mo, 20.08. 20:00 18.5° C bewölkt
Mo, 20.08. 14:00 19.7° C bedeckt
Mo, 20.08. 8:00 18.3° C bedeckt
Mo, 20.08. 2:00 19.4° C bedeckt
So, 19.08. 20:00 21.8° C bedeckt
Ortszeit Temperatur Wetter
Di, 21.08. 15:00 20.6° C bewölkt
Di, 21.08. 14:50 20.6° C bewölkt
Di, 21.08. 14:40 20.6° C bewölkt
Di, 21.08. 14:30 20.4° C bewölkt
Di, 21.08. 14:20 20.4° C bewölkt
Di, 21.08. 14:10 20.3° C bewölkt
Di, 21.08. 14:00 21.3° C bewölkt
Di, 21.08. 13:30 20.7° C bewölkt
Di, 21.08. 13:00 19.1° C bewölkt
Di, 21.08. 12:30 19.4° C wolkig
Di, 21.08. 12:00 18.6° C bewölkt
Ortszeit Relative Feuchte Sichtweite
Di, 21.08. 14:00 52% 11 km
Di, 21.08. 8:00 92% 16 km
Di, 21.08. 2:00 91% 26 km
Mo, 20.08. 20:00 67% 45 km
Mo, 20.08. 14:00 70% 30 km
Mo, 20.08. 8:00 93% 17 km
Mo, 20.08. 2:00 78% 19 km
So, 19.08. 20:00 62% 16 km
Ortszeit Relative Feuchte Sichtweite
Di, 21.08. 15:00 51% 40 km
Di, 21.08. 14:50 51% -
Di, 21.08. 14:40 51% -
Di, 21.08. 14:30 51% 50 km
Di, 21.08. 14:20 51% -
Di, 21.08. 14:10 52% -
Di, 21.08. 14:00 52% 11 km
Di, 21.08. 13:30 53% 29 km
Di, 21.08. 13:00 55% 45 km
Di, 21.08. 12:30 56% 40 km
Di, 21.08. 12:00 58% 50 km
Ortszeit Niederschlagsmenge Niederschlagsart
Di, 21.08. 14:00 0.0 l/m2 in 6 Std. -
Di, 21.08. 8:00 0.0 l/m2 in 12 Std. -
Di, 21.08. 2:00 0.0 l/m2 in 6 Std. -
Mo, 20.08. 20:00 0.4 l/m2 in 12 Std. -
Mo, 20.08. 14:00 0.4 l/m2 in 6 Std. Regen
Mo, 20.08. 8:00 2 l/m2 in 12 Std. Regen
Mo, 20.08. 2:00 0.0 l/m2 in 6 Std. -
So, 19.08. 20:00 0.0 l/m2 in 12 Std. -
Ortszeit Niederschlagsmenge Niederschlagsart
Di, 21.08. 15:00 0.0 l/m2 in 1 Std. -
Di, 21.08. 14:50 keine Meldung -
Di, 21.08. 14:40 keine Meldung -
Di, 21.08. 14:30 0.0 l/m2 in 1 Std. -
Di, 21.08. 14:20 keine Meldung -
Di, 21.08. 14:10 keine Meldung -
Di, 21.08. 14:00 0.0 l/m2 in 1 Std. -
Di, 21.08. 13:30 0.0 l/m2 in 1 Std. -
Di, 21.08. 13:00 0.0 l/m2 in 1 Std. -
Di, 21.08. 12:30 0.0 l/m2 in 1 Std. -
Di, 21.08. 12:00 0.0 l/m2 in 1 Std. -
Ortszeit Stärke Spitze Richtung
km/h Bft. km/h Grad Sektor
Di, 21.08. 14:00 9 2 20 340° N
Di, 21.08. 8:00 2 1 7 250° W
Di, 21.08. 2:00 7 2 29 270° W
Mo, 20.08. 20:00 13 3 39 280° W
Mo, 20.08. 14:00 17 3 31 310° NW
Mo, 20.08. 8:00 13 3 28 270° W
Mo, 20.08. 2:00 13 3 28 240° SW
So, 19.08. 20:00 11 2 29 300° NW
Ortszeit Stärke Spitze Richtung
km/h Bft. km/h Grad Sektor
Di, 21.08. 15:00 6 1 15 10° N
Di, 21.08. 14:50 6 1 - 10° N
Di, 21.08. 14:40 6 1 - 10° N
Di, 21.08. 14:30 7 2 14 320° NW
Di, 21.08. 14:20 7 2 - 320° NW
Di, 21.08. 14:10 7 2 - 330° NW
Di, 21.08. 14:00 9 2 20 340° N
Di, 21.08. 13:30 9 2 17 260° W
Di, 21.08. 13:00 7 2 14 340° N
Di, 21.08. 12:30 7 2 14 270° W
Di, 21.08. 12:00 7 2 18 300° NW
Ortszeit Untergrenze Bedeckung Gattung
total tief tief mittel hoch
Di, 21.08. 14:00 1260 m 7/8 7/8 - - -
Di, 21.08. 8:00 1440 m 0/8 0/8 - - -
Di, 21.08. 2:00 - 8/8 - - - -
Mo, 20.08. 20:00 870 m 7/8 6/8 - - -
Mo, 20.08. 14:00 720 m 8/8 8/8 - - -
Mo, 20.08. 8:00 300 m 8/8 8/8 - - -
Mo, 20.08. 2:00 600 m 8/8 8/8 - - -
So, 19.08. 20:00 4200 m 7/8 - - - -
Ortszeit Bedeckungsgrad in Achtel und Wolkenuntergrenze
Di, 21.08. 15:00 7(1380m)
Di, 21.08. 14:50 7(1380m)
Di, 21.08. 14:40 7(1350m)
Di, 21.08. 14:30 6(1350m) 7(1500m)
Di, 21.08. 14:20 6(1350m) 7(1500m)
Di, 21.08. 14:10 7(1440m)
Di, 21.08. 14:00 4(1260m) 7(1500m)
Di, 21.08. 13:30 3(1260m) 7(1500m) 9
Di, 21.08. 13:00 6(1110m) 7(1320m)
Di, 21.08. 12:30 4(1140m) 6(1350m)
Di, 21.08. 12:00 7(1050m) 7(12000m) 7(12000m)
Ortszeit Luftdruck NN (hPa) Tendenz (hPa in 3 Std.)
Di, 21.08. 14:00 1022 - 0,5
Di, 21.08. 8:00 1022 + 0,7
Di, 21.08. 2:00 1020 + 0,7
Mo, 20.08. 20:00 1018 + 0,6
Mo, 20.08. 14:00 1017 + 1,4
Mo, 20.08. 8:00 1014 - 0,1
Mo, 20.08. 2:00 1015 - 0,8
So, 19.08. 20:00 1016 - 1,1
Ortszeit Luftdruck NN (hPa) Tendenz (hPa in 3 Std.)
Di, 21.08. 15:00 1022 - 0,5
Di, 21.08. 14:50 1022 keine Meldung
Di, 21.08. 14:40 1022 keine Meldung
Di, 21.08. 14:30 1022 - 0,5
Di, 21.08. 14:20 1022 keine Meldung
Di, 21.08. 14:10 1022 keine Meldung
Di, 21.08. 14:00 1022 - 0,5
Di, 21.08. 13:30 1022 - 0,3
Di, 21.08. 13:00 1022 - 0,2
Di, 21.08. 12:30 1022 0,0
Di, 21.08. 12:00 1023 + 0,4
Ortszeit Schneehöhe (cm)
Di, 21.08. 14:00 -
Di, 21.08. 8:00 -
Di, 21.08. 2:00 -
Mo, 20.08. 20:00 -
Mo, 20.08. 14:00 -
Mo, 20.08. 8:00 -
Mo, 20.08. 2:00 -
So, 19.08. 20:00 -
Ortszeit Schneehöhe (cm)
Di, 21.08. 15:00 -
Di, 21.08. 14:50 -
Di, 21.08. 14:40 -
Di, 21.08. 14:30 -
Di, 21.08. 14:20 -
Di, 21.08. 14:10 -
Di, 21.08. 14:00 -
Di, 21.08. 13:30 -
Di, 21.08. 13:00 -
Di, 21.08. 12:30 -
Di, 21.08. 12:00 -
Link zu dieser Seite / Seite empfehlen

Das Wetter in ...